sensor_id;sensor_type;location;lat;lon;timestamp;P1;durP1;ratioP1;P2;durP2;ratioP2
67595;SDS011;54410;48.694;8.934;2023-11-21T00:01:41;9.90;;;4.03;;
67595;SDS011;54410;48.694;8.934;2023-11-21T00:04:08;5.60;;;3.73;;
67595;SDS011;54410;48.694;8.934;2023-11-21T00:06:33;5.30;;;4.00;;
67595;SDS011;54410;48.694;8.934;2023-11-21T00:08:59;7.47;;;4.20;;
67595;SDS011;54410;48.694;8.934;2023-11-21T00:11:25;6.70;;;3.77;;
67595;SDS011;54410;48.694;8.934;2023-11-21T00:13:51;8.57;;;3.97;;
67595;SDS011;54410;48.694;8.934;2023-11-21T00:16:17;7.40;;;3.70;;
67595;SDS011;54410;48.694;8.934;2023-11-21T00:18:43;4.47;;;3.63;;
67595;SDS011;54410;48.694;8.934;2023-11-21T00:21:11;10.80;;;4.27;;
67595;SDS011;54410;48.694;8.934;2023-11-21T00:23:37;7.53;;;4.40;;
67595;SDS011;54410;48.694;8.934;2023-11-21T00:26:03;9.17;;;4.37;;
67595;SDS011;54410;48.694;8.934;2023-11-21T00:28:29;5.47;;;4.17;;
67595;SDS011;54410;48.694;8.934;2023-11-21T00:30:55;8.73;;;4.63;;
67595;SDS011;54410;48.694;8.934;2023-11-21T00:33:21;7.77;;;4.40;;
67595;SDS011;54410;48.694;8.934;2023-11-21T00:35:47;7.80;;;4.20;;
67595;SDS011;54410;48.694;8.934;2023-11-21T00:38:13;11.87;;;3.93;;
67595;SDS011;54410;48.694;8.934;2023-11-21T00:40:39;9.83;;;4.57;;
67595;SDS011;54410;48.694;8.934;2023-11-21T00:43:05;8.93;;;3.90;;
67595;SDS011;54410;48.694;8.934;2023-11-21T00:45:31;3.87;;;3.47;;
67595;SDS011;54410;48.694;8.934;2023-11-21T00:47:56;5.37;;;3.50;;
67595;SDS011;54410;48.694;8.934;2023-11-21T00:50:23;11.40;;;3.43;;
67595;SDS011;54410;48.694;8.934;2023-11-21T00:52:49;7.63;;;3.40;;
67595;SDS011;54410;48.694;8.934;2023-11-21T00:55:16;4.43;;;3.20;;
67595;SDS011;54410;48.694;8.934;2023-11-21T00:57:43;3.67;;;3.17;;
67595;SDS011;54410;48.694;8.934;2023-11-21T01:00:09;8.97;;;3.30;;
67595;SDS011;54410;48.694;8.934;2023-11-21T01:02:45;3.70;;;3.40;;
67595;SDS011;54410;48.694;8.934;2023-11-21T01:05:12;4.53;;;3.20;;
67595;SDS011;54410;48.694;8.934;2023-11-21T01:07:38;4.37;;;3.40;;
67595;SDS011;54410;48.694;8.934;2023-11-21T01:10:03;6.57;;;3.43;;
67595;SDS011;54410;48.694;8.934;2023-11-21T01:12:32;6.30;;;3.30;;
67595;SDS011;54410;48.694;8.934;2023-11-21T01:14:59;6.53;;;3.30;;
67595;SDS011;54410;48.694;8.934;2023-11-21T01:17:25;6.10;;;3.10;;
67595;SDS011;54410;48.694;8.934;2023-11-21T01:19:52;4.50;;;2.90;;
67595;SDS011;54410;48.694;8.934;2023-11-21T01:22:18;6.97;;;3.13;;
67595;SDS011;54410;48.694;8.934;2023-11-21T01:24:47;4.80;;;2.80;;
67595;SDS011;54410;48.694;8.934;2023-11-21T01:27:13;6.53;;;2.70;;
67595;SDS011;54410;48.694;8.934;2023-11-21T01:29:39;3.67;;;2.97;;
67595;SDS011;54410;48.694;8.934;2023-11-21T01:32:05;4.93;;;3.07;;
67595;SDS011;54410;48.694;8.934;2023-11-21T01:34:32;2.90;;;2.60;;
67595;SDS011;54410;48.694;8.934;2023-11-21T01:36:58;3.50;;;2.60;;
67595;SDS011;54410;48.694;8.934;2023-11-21T01:39:26;2.83;;;2.60;;
67595;SDS011;54410;48.694;8.934;2023-11-21T01:41:52;5.03;;;2.87;;
67595;SDS011;54410;48.694;8.934;2023-11-21T01:44:18;2.97;;;2.40;;
67595;SDS011;54410;48.694;8.934;2023-11-21T01:46:44;2.60;;;2.40;;
67595;SDS011;54410;48.694;8.934;2023-11-21T01:49:11;3.80;;;2.77;;
67595;SDS011;54410;48.694;8.934;2023-11-21T01:51:38;2.77;;;2.50;;
67595;SDS011;54410;48.694;8.934;2023-11-21T01:54:04;4.67;;;3.10;;
67595;SDS011;54410;48.694;8.934;2023-11-21T01:56:31;3.83;;;2.90;;
67595;SDS011;54410;48.694;8.934;2023-11-21T01:58:57;4.27;;;3.33;;
67595;SDS011;54410;48.694;8.934;2023-11-21T02:01:23;4.07;;;2.70;;
67595;SDS011;54410;48.694;8.934;2023-11-21T02:03:51;5.73;;;2.80;;
67595;SDS011;54410;48.694;8.934;2023-11-21T02:06:17;4.50;;;3.00;;
67595;SDS011;54410;48.694;8.934;2023-11-21T02:08:44;4.17;;;2.70;;
67595;SDS011;54410;48.694;8.934;2023-11-21T02:11:10;3.13;;;2.83;;
67595;SDS011;54410;48.694;8.934;2023-11-21T02:13:38;3.43;;;2.80;;
67595;SDS011;54410;48.694;8.934;2023-11-21T02:16:08;5.23;;;2.77;;
67595;SDS011;54410;48.694;8.934;2023-11-21T02:18:34;2.90;;;2.60;;
67595;SDS011;54410;48.694;8.934;2023-11-21T02:21:00;3.30;;;2.60;;
67595;SDS011;54410;48.694;8.934;2023-11-21T02:23:27;3.20;;;2.63;;
67595;SDS011;54410;48.694;8.934;2023-11-21T02:25:53;4.30;;;2.43;;
67595;SDS011;54410;48.694;8.934;2023-11-21T02:28:19;3.03;;;2.50;;
67595;SDS011;54410;48.694;8.934;2023-11-21T02:30:50;3.20;;;2.63;;
67595;SDS011;54410;48.694;8.934;2023-11-21T02:33:20;4.33;;;2.60;;
67595;SDS011;54410;48.694;8.934;2023-11-21T02:35:46;3.53;;;2.80;;
67595;SDS011;54410;48.694;8.934;2023-11-21T02:38:12;2.90;;;2.30;;
67595;SDS011;54410;48.694;8.934;2023-11-21T02:40:38;3.17;;;2.47;;
67595;SDS011;54410;48.694;8.934;2023-11-21T02:43:04;3.13;;;2.33;;
67595;SDS011;54410;48.694;8.934;2023-11-21T02:45:31;3.60;;;2.67;;
67595;SDS011;54410;48.694;8.934;2023-11-21T02:47:57;3.27;;;2.50;;
67595;SDS011;54410;48.694;8.934;2023-11-21T02:50:24;2.50;;;2.10;;
67595;SDS011;54410;48.694;8.934;2023-11-21T02:52:50;2.83;;;2.57;;
67595;SDS011;54410;48.694;8.934;2023-11-21T02:55:16;2.20;;;2.10;;
67595;SDS011;54410;48.694;8.934;2023-11-21T02:57:42;5.17;;;2.37;;
67595;SDS011;54410;48.694;8.934;2023-11-21T03:00:07;2.60;;;2.40;;
67595;SDS011;54410;48.694;8.934;2023-11-21T03:02:35;2.83;;;2.50;;
67595;SDS011;54410;48.694;8.934;2023-11-21T03:05:04;3.07;;;2.50;;
67595;SDS011;54410;48.694;8.934;2023-11-21T03:07:31;2.50;;;2.30;;
67595;SDS011;54410;48.694;8.934;2023-11-21T03:09:57;2.87;;;2.30;;
67595;SDS011;54410;48.694;8.934;2023-11-21T03:12:23;2.40;;;2.20;;
67595;SDS011;54410;48.694;8.934;2023-11-21T03:14:48;2.23;;;2.10;;
67595;SDS011;54410;48.694;8.934;2023-11-21T03:17:14;3.20;;;2.20;;
67595;SDS011;54410;48.694;8.934;2023-11-21T03:19:41;2.80;;;2.47;;
67595;SDS011;54410;48.694;8.934;2023-11-21T03:22:06;2.40;;;2.20;;
67595;SDS011;54410;48.694;8.934;2023-11-21T03:24:33;5.40;;;2.27;;
67595;SDS011;54410;48.694;8.934;2023-11-21T03:26:59;2.70;;;2.27;;
67595;SDS011;54410;48.694;8.934;2023-11-21T03:29:25;2.63;;;2.37;;
67595;SDS011;54410;48.694;8.934;2023-11-21T03:31:51;2.37;;;2.27;;
67595;SDS011;54410;48.694;8.934;2023-11-21T03:34:27;5.37;;;2.40;;
67595;SDS011;54410;48.694;8.934;2023-11-21T03:36:53;2.60;;;2.40;;
67595;SDS011;54410;48.694;8.934;2023-11-21T03:39:22;3.97;;;2.47;;
67595;SDS011;54410;48.694;8.934;2023-11-21T03:41:48;2.67;;;2.30;;
67595;SDS011;54410;48.694;8.934;2023-11-21T03:44:14;2.60;;;2.03;;
67595;SDS011;54410;48.694;8.934;2023-11-21T03:46:40;2.83;;;2.10;;
67595;SDS011;54410;48.694;8.934;2023-11-21T03:49:06;2.70;;;2.17;;
67595;SDS011;54410;48.694;8.934;2023-11-21T03:51:32;3.83;;;2.30;;
67595;SDS011;54410;48.694;8.934;2023-11-21T03:53:59;2.63;;;2.20;;
67595;SDS011;54410;48.694;8.934;2023-11-21T03:56:25;2.20;;;2.10;;
67595;SDS011;54410;48.694;8.934;2023-11-21T03:58:50;2.70;;;2.00;;
67595;SDS011;54410;48.694;8.934;2023-11-21T04:01:22;3.13;;;2.10;;
67595;SDS011;54410;48.694;8.934;2023-11-21T04:03:49;2.10;;;2.00;;
67595;SDS011;54410;48.694;8.934;2023-11-21T04:06:15;2.47;;;2.10;;
67595;SDS011;54410;48.694;8.934;2023-11-21T04:08:42;2.90;;;2.00;;
67595;SDS011;54410;48.694;8.934;2023-11-21T04:11:09;2.30;;;2.20;;
67595;SDS011;54410;48.694;8.934;2023-11-21T04:13:36;2.20;;;2.10;;
67595;SDS011;54410;48.694;8.934;2023-11-21T04:16:03;6.80;;;2.23;;
67595;SDS011;54410;48.694;8.934;2023-11-21T04:18:29;2.60;;;2.40;;
67595;SDS011;54410;48.694;8.934;2023-11-21T04:20:55;3.10;;;2.10;;
67595;SDS011;54410;48.694;8.934;2023-11-21T04:23:20;2.80;;;2.57;;
67595;SDS011;54410;48.694;8.934;2023-11-21T04:25:46;2.90;;;2.57;;
67595;SDS011;54410;48.694;8.934;2023-11-21T04:28:11;2.13;;;2.03;;
67595;SDS011;54410;48.694;8.934;2023-11-21T04:30:38;3.03;;;2.30;;
67595;SDS011;54410;48.694;8.934;2023-11-21T04:33:04;2.50;;;2.17;;
67595;SDS011;54410;48.694;8.934;2023-11-21T04:35:30;4.30;;;2.10;;
67595;SDS011;54410;48.694;8.934;2023-11-21T04:37:58;2.70;;;2.27;;
67595;SDS011;54410;48.694;8.934;2023-11-21T04:40:25;2.10;;;2.00;;
67595;SDS011;54410;48.694;8.934;2023-11-21T04:42:52;2.70;;;2.20;;
67595;SDS011;54410;48.694;8.934;2023-11-21T04:45:18;2.10;;;1.90;;
67595;SDS011;54410;48.694;8.934;2023-11-21T04:47:44;2.47;;;2.30;;
67595;SDS011;54410;48.694;8.934;2023-11-21T04:50:10;3.57;;;2.30;;
67595;SDS011;54410;48.694;8.934;2023-11-21T04:52:36;2.10;;;2.00;;
67595;SDS011;54410;48.694;8.934;2023-11-21T04:55:02;2.40;;;2.30;;
67595;SDS011;54410;48.694;8.934;2023-11-21T04:57:28;2.20;;;2.10;;
67595;SDS011;54410;48.694;8.934;2023-11-21T04:59:54;2.20;;;2.10;;
67595;SDS011;54410;48.694;8.934;2023-11-21T05:02:20;2.30;;;2.17;;
67595;SDS011;54410;48.694;8.934;2023-11-21T05:04:46;4.80;;;2.30;;
67595;SDS011;54410;48.694;8.934;2023-11-21T05:07:12;5.33;;;2.47;;
67595;SDS011;54410;48.694;8.934;2023-11-21T05:09:44;3.03;;;2.47;;
67595;SDS011;54410;48.694;8.934;2023-11-21T05:12:11;3.10;;;2.30;;
67595;SDS011;54410;48.694;8.934;2023-11-21T05:14:37;3.00;;;2.50;;
67595;SDS011;54410;48.694;8.934;2023-11-21T05:17:03;4.27;;;2.53;;
67595;SDS011;54410;48.694;8.934;2023-11-21T05:19:29;2.63;;;2.43;;
67595;SDS011;54410;48.694;8.934;2023-11-21T05:21:56;2.87;;;2.63;;
67595;SDS011;54410;48.694;8.934;2023-11-21T05:24:23;2.50;;;2.40;;
67595;SDS011;54410;48.694;8.934;2023-11-21T05:26:49;3.40;;;2.97;;
67595;SDS011;54410;48.694;8.934;2023-11-21T05:29:15;4.07;;;2.60;;
67595;SDS011;54410;48.694;8.934;2023-11-21T05:31:41;2.50;;;2.40;;
67595;SDS011;54410;48.694;8.934;2023-11-21T05:34:07;3.00;;;2.73;;
67595;SDS011;54410;48.694;8.934;2023-11-21T05:36:33;3.33;;;3.10;;
67595;SDS011;54410;48.694;8.934;2023-11-21T05:38:59;3.70;;;3.40;;
67595;SDS011;54410;48.694;8.934;2023-11-21T05:41:25;4.37;;;3.20;;
67595;SDS011;54410;48.694;8.934;2023-11-21T05:43:51;2.93;;;2.50;;
67595;SDS011;54410;48.694;8.934;2023-11-21T05:46:19;3.50;;;3.20;;
67595;SDS011;54410;48.694;8.934;2023-11-21T05:48:44;2.80;;;2.60;;
67595;SDS011;54410;48.694;8.934;2023-11-21T05:51:11;3.03;;;2.83;;
67595;SDS011;54410;48.694;8.934;2023-11-21T05:53:38;4.30;;;2.60;;
67595;SDS011;54410;48.694;8.934;2023-11-21T05:56:04;2.90;;;2.70;;
67595;SDS011;54410;48.694;8.934;2023-11-21T05:58:30;3.20;;;3.00;;
67595;SDS011;54410;48.694;8.934;2023-11-21T06:00:56;2.70;;;2.50;;
67595;SDS011;54410;48.694;8.934;2023-11-21T06:03:22;3.43;;;3.23;;
67595;SDS011;54410;48.694;8.934;2023-11-21T06:05:48;2.40;;;2.30;;
67595;SDS011;54410;48.694;8.934;2023-11-21T06:08:14;2.90;;;2.63;;
67595;SDS011;54410;48.694;8.934;2023-11-21T06:10:42;2.43;;;2.27;;
67595;SDS011;54410;48.694;8.934;2023-11-21T06:13:08;2.57;;;2.43;;
67595;SDS011;54410;48.694;8.934;2023-11-21T06:15:35;3.10;;;2.80;;
67595;SDS011;54410;48.694;8.934;2023-11-21T06:18:01;2.80;;;2.60;;
67595;SDS011;54410;48.694;8.934;2023-11-21T06:20:27;3.80;;;3.50;;
67595;SDS011;54410;48.694;8.934;2023-11-21T06:22:53;3.20;;;2.90;;
67595;SDS011;54410;48.694;8.934;2023-11-21T06:25:19;3.20;;;3.00;;
67595;SDS011;54410;48.694;8.934;2023-11-21T06:27:46;4.93;;;3.33;;
67595;SDS011;54410;48.694;8.934;2023-11-21T06:30:13;3.83;;;3.20;;
67595;SDS011;54410;48.694;8.934;2023-11-21T06:32:40;3.67;;;3.03;;
67595;SDS011;54410;48.694;8.934;2023-11-21T06:35:06;3.60;;;3.30;;
67595;SDS011;54410;48.694;8.934;2023-11-21T06:37:33;4.07;;;3.50;;
67595;SDS011;54410;48.694;8.934;2023-11-21T06:39:59;3.90;;;3.60;;
67595;SDS011;54410;48.694;8.934;2023-11-21T06:42:25;4.10;;;3.80;;
67595;SDS011;54410;48.694;8.934;2023-11-21T06:44:52;4.33;;;3.93;;
67595;SDS011;54410;48.694;8.934;2023-11-21T06:47:19;5.00;;;4.60;;
67595;SDS011;54410;48.694;8.934;2023-11-21T06:49:45;5.37;;;4.77;;
67595;SDS011;54410;48.694;8.934;2023-11-21T06:52:14;6.93;;;5.20;;
67595;SDS011;54410;48.694;8.934;2023-11-21T06:54:40;6.13;;;4.73;;
67595;SDS011;54410;48.694;8.934;2023-11-21T06:57:05;6.10;;;4.60;;
67595;SDS011;54410;48.694;8.934;2023-11-21T06:59:31;5.47;;;4.97;;
67595;SDS011;54410;48.694;8.934;2023-11-21T07:01:57;7.40;;;5.27;;
67595;SDS011;54410;48.694;8.934;2023-11-21T07:04:23;4.73;;;4.27;;
67595;SDS011;54410;48.694;8.934;2023-11-21T07:06:50;4.67;;;4.27;;
67595;SDS011;54410;48.694;8.934;2023-11-21T07:09:19;7.80;;;4.53;;
67595;SDS011;54410;48.694;8.934;2023-11-21T07:11:47;5.87;;;4.17;;
67595;SDS011;54410;48.694;8.934;2023-11-21T07:14:13;4.87;;;4.40;;
67595;SDS011;54410;48.694;8.934;2023-11-21T07:16:39;4.70;;;4.00;;
67595;SDS011;54410;48.694;8.934;2023-11-21T07:19:05;4.90;;;3.80;;
67595;SDS011;54410;48.694;8.934;2023-11-21T07:21:32;4.37;;;3.97;;
67595;SDS011;54410;48.694;8.934;2023-11-21T07:23:59;5.83;;;3.93;;
67595;SDS011;54410;48.694;8.934;2023-11-21T07:26:26;4.00;;;3.70;;
67595;SDS011;54410;48.694;8.934;2023-11-21T07:28:52;4.30;;;3.90;;
67595;SDS011;54410;48.694;8.934;2023-11-21T07:31:18;5.63;;;4.47;;
67595;SDS011;54410;48.694;8.934;2023-11-21T07:33:44;5.77;;;5.17;;
67595;SDS011;54410;48.694;8.934;2023-11-21T07:36:13;6.70;;;4.85;;
67595;SDS011;54410;48.694;8.934;2023-11-21T07:38:40;4.30;;;4.00;;
67595;SDS011;54410;48.694;8.934;2023-11-21T07:41:06;5.93;;;4.77;;
67595;SDS011;54410;48.694;8.934;2023-11-21T07:43:35;5.17;;;4.37;;
67595;SDS011;54410;48.694;8.934;2023-11-21T07:46:01;5.23;;;4.17;;
67595;SDS011;54410;48.694;8.934;2023-11-21T07:48:28;4.38;;;3.90;;
67595;SDS011;54410;48.694;8.934;2023-11-21T07:50:54;5.30;;;3.88;;
67595;SDS011;54410;48.694;8.934;2023-11-21T07:53:20;5.45;;;3.95;;
67595;SDS011;54410;48.694;8.934;2023-11-21T07:55:47;6.53;;;5.18;;
67595;SDS011;54410;48.694;8.934;2023-11-21T07:58:13;6.53;;;4.45;;
67595;SDS011;54410;48.694;8.934;2023-11-21T08:00:38;4.00;;;3.70;;
67595;SDS011;54410;48.694;8.934;2023-11-21T08:03:05;3.80;;;3.50;;
67595;SDS011;54410;48.694;8.934;2023-11-21T08:05:31;3.67;;;3.28;;
67595;SDS011;54410;48.694;8.934;2023-11-21T08:07:57;3.70;;;3.40;;
67595;SDS011;54410;48.694;8.934;2023-11-21T08:10:23;3.92;;;3.63;;
67595;SDS011;54410;48.694;8.934;2023-11-21T08:12:50;4.93;;;3.17;;
67595;SDS011;54410;48.694;8.934;2023-11-21T08:15:16;3.97;;;3.67;;
67595;SDS011;54410;48.694;8.934;2023-11-21T08:17:41;4.18;;;3.20;;
67595;SDS011;54410;48.694;8.934;2023-11-21T08:20:08;3.38;;;3.08;;
67595;SDS011;54410;48.694;8.934;2023-11-21T08:22:35;3.38;;;3.08;;
67595;SDS011;54410;48.694;8.934;2023-11-21T08:25:02;3.50;;;3.00;;
67595;SDS011;54410;48.694;8.934;2023-11-21T08:27:29;3.05;;;2.85;;
67595;SDS011;54410;48.694;8.934;2023-11-21T08:29:55;3.30;;;3.00;;
67595;SDS011;54410;48.694;8.934;2023-11-21T08:32:22;3.15;;;2.95;;
67595;SDS011;54410;48.694;8.934;2023-11-21T08:34:47;2.85;;;2.65;;
67595;SDS011;54410;48.694;8.934;2023-11-21T08:37:15;4.22;;;3.25;;
67595;SDS011;54410;48.694;8.934;2023-11-21T08:39:43;3.42;;;3.15;;
67595;SDS011;54410;48.694;8.934;2023-11-21T08:42:09;3.22;;;2.90;;
67595;SDS011;54410;48.694;8.934;2023-11-21T08:44:35;3.53;;;3.22;;
67595;SDS011;54410;48.694;8.934;2023-11-21T08:47:01;7.45;;;4.28;;
67595;SDS011;54410;48.694;8.934;2023-11-21T08:49:27;7.38;;;3.92;;
67595;SDS011;54410;48.694;8.934;2023-11-21T08:51:54;3.97;;;3.58;;
67595;SDS011;54410;48.694;8.934;2023-11-21T08:54:20;4.80;;;3.50;;
67595;SDS011;54410;48.694;8.934;2023-11-21T08:56:46;3.25;;;2.95;;
67595;SDS011;54410;48.694;8.934;2023-11-21T08:59:12;2.95;;;2.75;;
67595;SDS011;54410;48.694;8.934;2023-11-21T09:01:41;6.50;;;3.70;;
67595;SDS011;54410;48.694;8.934;2023-11-21T09:04:07;3.92;;;3.50;;
67595;SDS011;54410;48.694;8.934;2023-11-21T09:06:33;10.18;;;4.40;;
67595;SDS011;54410;48.694;8.934;2023-11-21T09:08:58;7.57;;;4.00;;
67595;SDS011;54410;48.694;8.934;2023-11-21T09:11:24;5.00;;;3.72;;
67595;SDS011;54410;48.694;8.934;2023-11-21T09:13:52;4.10;;;3.25;;
67595;SDS011;54410;48.694;8.934;2023-11-21T09:16:19;4.00;;;3.50;;
67595;SDS011;54410;48.694;8.934;2023-11-21T09:18:45;4.70;;;4.20;;
67595;SDS011;54410;48.694;8.934;2023-11-21T09:21:11;5.95;;;4.22;;
67595;SDS011;54410;48.694;8.934;2023-11-21T09:23:37;6.85;;;3.80;;
67595;SDS011;54410;48.694;8.934;2023-11-21T09:26:03;6.63;;;4.13;;
67595;SDS011;54410;48.694;8.934;2023-11-21T09:28:30;4.50;;;3.75;;
67595;SDS011;54410;48.694;8.934;2023-11-21T09:30:56;3.92;;;3.53;;
67595;SDS011;54410;48.694;8.934;2023-11-21T09:33:21;3.53;;;3.25;;
67595;SDS011;54410;48.694;8.934;2023-11-21T09:35:49;3.38;;;3.17;;
67595;SDS011;54410;48.694;8.934;2023-11-21T09:38:16;3.42;;;3.22;;
67595;SDS011;54410;48.694;8.934;2023-11-21T09:40:42;3.92;;;3.10;;
67595;SDS011;54410;48.694;8.934;2023-11-21T09:43:11;3.28;;;3.00;;
67595;SDS011;54410;48.694;8.934;2023-11-21T09:45:41;3.55;;;3.25;;
67595;SDS011;54410;48.694;8.934;2023-11-21T09:48:10;4.75;;;3.70;;
67595;SDS011;54410;48.694;8.934;2023-11-21T09:50:36;3.63;;;3.33;;
67595;SDS011;54410;48.694;8.934;2023-11-21T09:55:39;2.90;;;2.70;;
67595;SDS011;54410;48.694;8.934;2023-11-21T09:58:09;2.92;;;2.72;;
67595;SDS011;54410;48.694;8.934;2023-11-21T10:00:39;2.97;;;2.78;;
67595;SDS011;54410;48.694;8.934;2023-11-21T10:03:05;3.90;;;3.60;;
67595;SDS011;54410;48.694;8.934;2023-11-21T10:05:32;4.90;;;3.70;;
67595;SDS011;54410;48.694;8.934;2023-11-21T10:07:59;3.70;;;3.25;;
67595;SDS011;54410;48.694;8.934;2023-11-21T10:10:26;3.75;;;3.45;;
67595;SDS011;54410;48.694;8.934;2023-11-21T10:12:57;3.58;;;3.00;;
67595;SDS011;54410;48.694;8.934;2023-11-21T10:15:30;3.80;;;3.15;;
67595;SDS011;54410;48.694;8.934;2023-11-21T10:17:56;4.13;;;3.25;;
67595;SDS011;54410;48.694;8.934;2023-11-21T10:20:23;3.63;;;3.33;;
67595;SDS011;54410;48.694;8.934;2023-11-21T10:22:49;4.85;;;3.72;;
67595;SDS011;54410;48.694;8.934;2023-11-21T10:25:15;4.45;;;3.40;;
67595;SDS011;54410;48.694;8.934;2023-11-21T10:27:43;3.25;;;2.95;;
67595;SDS011;54410;48.694;8.934;2023-11-21T10:30:12;4.55;;;2.85;;
67595;SDS011;54410;48.694;8.934;2023-11-21T10:32:38;3.70;;;3.40;;
67595;SDS011;54410;48.694;8.934;2023-11-21T10:35:05;3.47;;;2.85;;
67595;SDS011;54410;48.694;8.934;2023-11-21T10:37:35;2.85;;;2.65;;
67595;SDS011;54410;48.694;8.934;2023-11-21T10:40:11;3.20;;;2.90;;
67595;SDS011;54410;48.694;8.934;2023-11-21T10:42:37;2.72;;;2.50;;
67595;SDS011;54410;48.694;8.934;2023-11-21T10:45:04;2.50;;;2.30;;
67595;SDS011;54410;48.694;8.934;2023-11-21T10:47:37;2.50;;;2.30;;
67595;SDS011;54410;48.694;8.934;2023-11-21T10:50:04;2.42;;;2.33;;
67595;SDS011;54410;48.694;8.934;2023-11-21T10:52:30;1.83;;;1.73;;
67595;SDS011;54410;48.694;8.934;2023-11-21T10:54:56;1.88;;;1.77;;
67595;SDS011;54410;48.694;8.934;2023-11-21T10:57:28;2.30;;;2.10;;
67595;SDS011;54410;48.694;8.934;2023-11-21T10:59:55;3.45;;;3.15;;
67595;SDS011;54410;48.694;8.934;2023-11-21T11:02:24;2.85;;;1.70;;
67595;SDS011;54410;48.694;8.934;2023-11-21T11:04:52;1.92;;;1.83;;
67595;SDS011;54410;48.694;8.934;2023-11-21T11:07:20;1.80;;;1.70;;
67595;SDS011;54410;48.694;8.934;2023-11-21T11:09:47;3.88;;;1.90;;
67595;SDS011;54410;48.694;8.934;2023-11-21T11:12:13;3.13;;;2.05;;
67595;SDS011;54410;48.694;8.934;2023-11-21T11:14:40;2.20;;;2.10;;
67595;SDS011;54410;48.694;8.934;2023-11-21T11:17:08;2.00;;;1.90;;
67595;SDS011;54410;48.694;8.934;2023-11-21T11:19:34;2.42;;;2.22;;
67595;SDS011;54410;48.694;8.934;2023-11-21T11:24:57;2.53;;;2.33;;
67595;SDS011;54410;48.694;8.934;2023-11-21T11:30:14;2.58;;;2.38;;
67595;SDS011;54410;48.694;8.934;2023-11-21T11:35:28;2.83;;;2.63;;
67595;SDS011;54410;48.694;8.934;2023-11-21T11:37:57;3.03;;;2.83;;
67595;SDS011;54410;48.694;8.934;2023-11-21T11:40:25;3.35;;;3.05;;
67595;SDS011;54410;48.694;8.934;2023-11-21T11:42:57;3.38;;;2.95;;
67595;SDS011;54410;48.694;8.934;2023-11-21T11:45:24;3.30;;;3.10;;
67595;SDS011;54410;48.694;8.934;2023-11-21T11:47:56;2.92;;;2.72;;
67595;SDS011;54410;48.694;8.934;2023-11-21T11:50:22;3.38;;;3.10;;
67595;SDS011;54410;48.694;8.934;2023-11-21T11:52:50;3.38;;;3.17;;
67595;SDS011;54410;48.694;8.934;2023-11-21T11:55:18;4.25;;;3.90;;
67595;SDS011;54410;48.694;8.934;2023-11-21T11:57:46;3.40;;;3.20;;
67595;SDS011;54410;48.694;8.934;2023-11-21T12:00:22;3.75;;;3.45;;
67595;SDS011;54410;48.694;8.934;2023-11-21T12:02:52;4.90;;;4.50;;
67595;SDS011;54410;48.694;8.934;2023-11-21T12:05:19;4.88;;;4.47;;
67595;SDS011;54410;48.694;8.934;2023-11-21T12:10:18;4.70;;;4.30;;
67595;SDS011;54410;48.694;8.934;2023-11-21T12:12:48;4.53;;;4.18;;
67595;SDS011;54410;48.694;8.934;2023-11-21T12:15:14;4.57;;;3.90;;
67595;SDS011;54410;48.694;8.934;2023-11-21T12:17:41;5.03;;;4.63;;
67595;SDS011;54410;48.694;8.934;2023-11-21T12:20:08;5.00;;;4.60;;
67595;SDS011;54410;48.694;8.934;2023-11-21T12:25:35;5.45;;;4.95;;
67595;SDS011;54410;48.694;8.934;2023-11-21T12:28:01;6.05;;;5.25;;
67595;SDS011;54410;48.694;8.934;2023-11-21T12:30:32;5.55;;;5.05;;
67595;SDS011;54410;48.694;8.934;2023-11-21T12:33:00;6.32;;;5.72;;
67595;SDS011;54410;48.694;8.934;2023-11-21T12:35:28;6.32;;;5.72;;
67595;SDS011;54410;48.694;8.934;2023-11-21T12:37:55;6.25;;;5.65;;
67595;SDS011;54410;48.694;8.934;2023-11-21T12:40:24;7.60;;;5.88;;
67595;SDS011;54410;48.694;8.934;2023-11-21T12:42:54;6.72;;;5.95;;
67595;SDS011;54410;48.694;8.934;2023-11-21T12:45:21;6.63;;;5.60;;
67595;SDS011;54410;48.694;8.934;2023-11-21T12:47:48;6.15;;;5.60;;
67595;SDS011;54410;48.694;8.934;2023-11-21T12:50:15;6.10;;;5.50;;
67595;SDS011;54410;48.694;8.934;2023-11-21T12:52:42;6.65;;;6.05;;
67595;SDS011;54410;48.694;8.934;2023-11-21T12:55:12;7.72;;;7.03;;
67595;SDS011;54410;48.694;8.934;2023-11-21T12:57:41;6.47;;;5.85;;
67595;SDS011;54410;48.694;8.934;2023-11-21T13:00:08;6.80;;;6.10;;
67595;SDS011;54410;48.694;8.934;2023-11-21T13:02:38;8.32;;;7.28;;
67595;SDS011;54410;48.694;8.934;2023-11-21T13:05:07;11.30;;;10.00;;
67595;SDS011;54410;48.694;8.934;2023-11-21T13:07:43;10.27;;;8.50;;
67595;SDS011;54410;48.694;8.934;2023-11-21T13:10:12;9.10;;;6.68;;
67595;SDS011;54410;48.694;8.934;2023-11-21T13:12:42;7.63;;;6.53;;
67595;SDS011;54410;48.694;8.934;2023-11-21T13:15:09;13.85;;;11.45;;
67595;SDS011;54410;48.694;8.934;2023-11-21T13:17:35;9.48;;;7.93;;
67595;SDS011;54410;48.694;8.934;2023-11-21T13:20:01;6.25;;;5.65;;
67595;SDS011;54410;48.694;8.934;2023-11-21T13:22:31;6.40;;;5.55;;
67595;SDS011;54410;48.694;8.934;2023-11-21T13:24:58;5.97;;;4.65;;
67595;SDS011;54410;48.694;8.934;2023-11-21T13:27:24;5.68;;;5.22;;
67595;SDS011;54410;48.694;8.934;2023-11-21T13:29:50;4.80;;;4.43;;
67595;SDS011;54410;48.694;8.934;2023-11-21T13:32:16;6.55;;;5.88;;
67595;SDS011;54410;48.694;8.934;2023-11-21T13:34:45;8.43;;;7.63;;
67595;SDS011;54410;48.694;8.934;2023-11-21T13:37:12;7.03;;;6.43;;
67595;SDS011;54410;48.694;8.934;2023-11-21T13:39:38;7.43;;;6.43;;
67595;SDS011;54410;48.694;8.934;2023-11-21T13:42:09;11.57;;;8.75;;
67595;SDS011;54410;48.694;8.934;2023-11-21T13:44:36;12.90;;;9.60;;
67595;SDS011;54410;48.694;8.934;2023-11-21T13:47:03;3.83;;;3.47;;
67595;SDS011;54410;48.694;8.934;2023-11-21T13:49:30;2.72;;;2.53;;
67595;SDS011;54410;48.694;8.934;2023-11-21T13:52:01;10.27;;;2.45;;
67595;SDS011;54410;48.694;8.934;2023-11-21T13:54:28;2.70;;;2.50;;
67595;SDS011;54410;48.694;8.934;2023-11-21T13:56:56;2.63;;;2.42;;
67595;SDS011;54410;48.694;8.934;2023-11-21T13:59:21;3.10;;;2.90;;
67595;SDS011;54410;48.694;8.934;2023-11-21T14:01:53;3.10;;;2.80;;
67595;SDS011;54410;48.694;8.934;2023-11-21T14:04:36;3.43;;;3.13;;
67595;SDS011;54410;48.694;8.934;2023-11-21T14:07:18;3.35;;;3.15;;
67595;SDS011;54410;48.694;8.934;2023-11-21T14:10:02;6.00;;;5.40;;
67595;SDS011;54410;48.694;8.934;2023-11-21T14:12:29;4.17;;;3.77;;
67595;SDS011;54410;48.694;8.934;2023-11-21T14:14:59;6.13;;;5.63;;
67595;SDS011;54410;48.694;8.934;2023-11-21T14:17:25;4.17;;;3.87;;
67595;SDS011;54410;48.694;8.934;2023-11-21T14:19:52;4.50;;;4.10;;
67595;SDS011;54410;48.694;8.934;2023-11-21T14:22:20;5.10;;;4.10;;
67595;SDS011;54410;48.694;8.934;2023-11-21T14:24:46;4.83;;;4.43;;
67595;SDS011;54410;48.694;8.934;2023-11-21T14:27:12;4.88;;;4.40;;
67595;SDS011;54410;48.694;8.934;2023-11-21T14:29:39;4.37;;;4.07;;
67595;SDS011;54410;48.694;8.934;2023-11-21T14:32:09;3.77;;;3.47;;
67595;SDS011;54410;48.694;8.934;2023-11-21T14:34:35;4.73;;;4.33;;
67595;SDS011;54410;48.694;8.934;2023-11-21T14:37:01;6.43;;;4.00;;
67595;SDS011;54410;48.694;8.934;2023-11-21T14:39:28;4.30;;;4.00;;
67595;SDS011;54410;48.694;8.934;2023-11-21T14:41:54;4.20;;;3.90;;
67595;SDS011;54410;48.694;8.934;2023-11-21T14:44:21;3.53;;;3.33;;
67595;SDS011;54410;48.694;8.934;2023-11-21T14:46:51;3.90;;;3.60;;
67595;SDS011;54410;48.694;8.934;2023-11-21T14:49:18;3.70;;;3.50;;
67595;SDS011;54410;48.694;8.934;2023-11-21T14:51:49;4.83;;;3.77;;
67595;SDS011;54410;48.694;8.934;2023-11-21T14:54:27;3.97;;;3.60;;
67595;SDS011;54410;48.694;8.934;2023-11-21T14:57:14;3.80;;;3.50;;
67595;SDS011;54410;48.694;8.934;2023-11-21T14:59:47;3.38;;;3.08;;
67595;SDS011;54410;48.694;8.934;2023-11-21T15:02:23;4.10;;;3.70;;
67595;SDS011;54410;48.694;8.934;2023-11-21T15:05:09;3.73;;;3.43;;